Time;durP1;ratioP1;P1;durP2;ratioP2;P2;SDS_P1;SDS_P2;PMS_P1;PMS_P2;Temp;Humidity;BMP_temperature;BMP_pressure;BME280_temperature;BME280_humidity;BME280_pressure;Samples;Min_cycle;Max_cycle;Signal;HPM_P1;HPM_P2
2022/06/23 00:00:30;;;;;;;38.53;35.67;;;19.80;99.90;;;;;;5057227;28;20202;-78
2022/06/23 00:02:58;;;;;;;31.83;29.33;;;19.80;99.90;;;;;;5036450;28;20209;-77
2022/06/23 00:05:27;;;;;;;32.27;29.50;;;19.90;99.90;;;;;;5036553;28;20175;-77
2022/06/23 00:07:57;;;;;;;30.43;28.30;;;19.80;99.90;;;;;;5034074;28;20210;-76
2022/06/23 00:10:33;;;;;;;32.07;29.60;;;19.80;99.90;;;;;;5034235;28;20223;-77
2022/06/23 00:12:59;;;;;;;31.53;29.10;;;19.80;99.90;;;;;;5031904;28;20550;-77
2022/06/23 00:15:38;;;;;;;33.57;31.10;;;19.70;99.90;;;;;;5032285;28;20182;-78
2022/06/23 00:18:14;;;;;;;29.27;26.97;;;19.60;99.90;;;;;;5030963;28;20179;-77
2022/06/23 00:20:58;;;;;;;49.37;46.20;;;19.60;99.90;;;;;;5032065;28;20183;-77
2022/06/23 00:23:28;;;;;;;78.80;73.53;;;19.50;99.90;;;;;;5033325;28;20293;-77
2022/06/23 00:26:17;;;;;;;39.17;36.27;;;19.40;99.90;;;;;;5032830;28;20711;-78
2022/06/23 00:28:50;;;;;;;39.87;36.97;;;19.30;99.90;;;;;;5032084;28;20274;-78
2022/06/23 00:31:34;;;;;;;24.20;22.03;;;19.20;99.90;;;;;;5053747;28;20255;-78
2022/06/23 00:34:03;;;;;;;40.00;36.97;;;19.20;99.90;;;;;;5050283;28;20202;-78
2022/06/23 00:36:48;;;;;;;50.67;47.07;;;19.10;99.90;;;;;;5041707;28;20163;-78
2022/06/23 00:39:33;;;;;;;35.90;32.83;;;19.10;99.90;;;;;;5043980;28;20336;-78
2022/06/23 00:42:00;;;;;;;21.27;19.27;;;19.10;99.90;;;;;;5046966;28;20266;-78
2022/06/23 00:44:31;;;;;;;25.10;22.67;;;19.00;99.90;;;;;;5033104;28;20179;-78
2022/06/23 00:47:05;;;;;;;28.03;25.20;;;18.90;99.90;;;;;;5032229;28;20379;-78
2022/06/23 00:49:41;;;;;;;27.70;25.43;;;18.90;99.90;;;;;;5032112;28;20219;-77
2022/06/23 00:52:20;;;;;;;18.20;16.37;;;18.80;99.90;;;;;;5032156;28;20225;-78
2022/06/23 00:54:51;;;;;;;19.60;15.23;;;18.70;99.90;;;;;;5032165;28;20213;-77
2022/06/23 00:57:43;;;;;;;18.50;16.77;;;18.70;99.90;;;;;;5030189;28;20190;-78
2022/06/23 01:00:17;;;;;;;18.63;16.83;;;18.60;99.90;;;;;;5032295;28;20205;-77
2022/06/23 01:03:13;;;;;;;20.77;17.83;;;18.60;99.90;;;;;;5031162;28;20198;-78
2022/06/23 01:05:51;;;;;;;26.37;24.17;;;18.50;99.90;;;;;;5021280;28;20195;-78
2022/06/23 01:08:28;;;;;;;28.10;25.10;;;18.50;99.90;;;;;;5030076;28;20377;-78
2022/06/23 01:11:00;;;;;;;75.30;69.80;;;18.50;99.90;;;;;;5031014;28;20214;-78
2022/06/23 01:13:34;;;;;;;145.70;136.73;;;18.50;99.90;;;;;;5034712;28;20285;-78
2022/06/23 01:16:17;;;;;;;100.57;93.83;;;18.50;99.90;;;;;;5034149;28;20329;-78
2022/06/23 01:19:12;;;;;;;54.67;50.43;;;18.40;99.90;;;;;;5032692;28;20209;-78
2022/06/23 01:21:48;;;;;;;45.83;42.27;;;18.30;99.90;;;;;;5031920;28;20240;-78
2022/06/23 01:24:27;;;;;;;43.50;40.53;;;18.30;99.90;;;;;;5037649;28;20186;-78
2022/06/23 01:27:06;;;;;;;81.33;76.20;;;18.20;99.90;;;;;;5043695;28;20179;-79
2022/06/23 01:29:48;;;;;;;76.57;71.43;;;18.20;99.90;;;;;;5047775;28;20582;-79
2022/06/23 01:32:25;;;;;;;131.30;123.10;;;18.20;99.90;;;;;;5036593;28;20210;-79
2022/06/23 01:35:05;;;;;;;126.07;118.10;;;18.10;99.90;;;;;;5037568;28;20186;-77
2022/06/23 01:37:33;;;;;;;136.00;127.00;;;18.10;99.90;;;;;;5036827;28;20281;-78
2022/06/23 01:40:09;;;;;;;176.30;165.70;;;18.20;99.90;;;;;;5056556;28;20183;-78
2022/06/23 01:42:50;;;;;;;178.77;166.87;;;18.10;99.90;;;;;;5036189;28;20202;-77
2022/06/23 01:45:22;;;;;;;104.60;97.97;;;18.20;99.90;;;;;;5037516;28;20667;-77
2022/06/23 01:48:03;;;;;;;70.97;66.20;;;18.10;99.90;;;;;;5044052;28;20179;-77
2022/06/23 01:50:52;;;;;;;35.73;32.77;;;18.00;99.90;;;;;;5045447;28;20241;-78
2022/06/23 01:53:26;;;;;;;48.97;44.73;;;18.00;99.90;;;;;;5037014;28;20215;-77
2022/06/23 01:56:27;;;;;;;42.40;39.27;;;17.90;99.90;;;;;;5033823;28;20558;-77
2022/06/23 01:59:17;;;;;;;48.63;45.03;;;17.90;99.90;;;;;;5033772;28;20298;-78
2022/06/23 02:02:04;;;;;;;64.67;60.50;;;17.90;99.90;;;;;;5033124;28;20207;-77
2022/06/23 02:04:41;;;;;;;91.30;85.03;;;17.90;99.90;;;;;;5034359;28;20209;-78
2022/06/23 02:07:16;;;;;;;73.87;69.43;;;17.90;99.90;;;;;;5033760;28;20647;-77
2022/06/23 02:09:49;;;;;;;32.23;29.80;;;17.90;99.90;;;;;;5034090;28;20206;-77
2022/06/23 02:13:02;;;;;;;36.10;33.27;;;17.80;99.90;;;;;;5034103;28;20199;-78
2022/06/23 02:15:31;;;;;;;30.73;28.27;;;17.80;99.90;;;;;;5028288;28;20244;-79
2022/06/23 02:18:13;;;;;;;45.03;41.93;;;17.70;99.90;;;;;;5035028;28;20179;-78
2022/06/23 02:20:52;;;;;;;82.00;76.83;;;17.70;99.90;;;;;;5047451;28;20197;-78
2022/06/23 02:23:24;;;;;;;261.50;245.10;;;17.70;99.90;;;;;;5039683;28;20688;-79
2022/06/23 02:26:15;;;;;;;325.03;305.23;;;17.80;99.90;;;;;;5035752;28;20175;-80
2022/06/23 02:28:59;;;;;;;124.93;116.57;;;17.80;99.90;;;;;;5030475;28;20588;-78
2022/06/23 02:31:34;;;;;;;99.33;92.93;;;17.70;99.90;;;;;;5036077;28;20273;-78
2022/06/23 02:34:30;;;;;;;164.13;153.53;;;17.60;99.90;;;;;;5035633;28;20408;-79
2022/06/23 02:36:59;;;;;;;241.93;226.03;;;17.70;99.90;;;;;;5033276;28;20186;-78
2022/06/23 02:39:49;;;;;;;161.23;150.63;;;17.70;99.90;;;;;;5034939;28;20655;-77
2022/06/23 02:42:26;;;;;;;59.93;55.73;;;17.70;99.90;;;;;;5037815;28;20202;-79
2022/06/23 02:45:10;;;;;;;50.07;46.13;;;17.70;99.90;;;;;;5044924;28;20186;-79
2022/06/23 02:47:54;;;;;;;42.57;39.07;;;17.70;99.90;;;;;;5039406;28;20183;-79
2022/06/23 02:50:46;;;;;;;32.13;29.53;;;17.60;99.90;;;;;;5035192;28;20214;-78
2022/06/23 02:53:51;;;;;;;18.43;16.70;;;17.60;99.90;;;;;;5039688;28;20259;-79
2022/06/23 02:56:38;;;;;;;30.63;28.03;;;17.50;99.90;;;;;;5051056;28;20190;-79
2022/06/23 02:59:44;;;;;;;72.27;66.77;;;17.50;99.90;;;;;;5043990;28;20183;-77
2022/06/23 03:02:39;;;;;;;43.37;40.40;;;17.60;99.90;;;;;;5045623;28;20322;-79
2022/06/23 03:05:23;;;;;;;24.63;22.70;;;17.60;99.90;;;;;;5032223;28;20187;-79
2022/06/23 03:08:01;;;;;;;32.30;29.80;;;17.50;99.90;;;;;;5036953;28;20179;-79
2022/06/23 03:11:51;;;;;;;27.97;25.73;;;17.60;99.90;;;;;;5035247;28;20210;-79
2022/06/23 03:14:13;;;;;;;29.67;26.87;;;17.60;99.90;;;;;;5032221;28;20183;-79
2022/06/23 03:16:46;;;;;;;27.87;25.63;;;17.60;99.90;;;;;;5042324;28;20618;-79
2022/06/23 03:19:21;;;;;;;27.33;24.93;;;17.60;99.90;;;;;;5054717;28;20194;-78
2022/06/23 03:21:54;;;;;;;27.50;24.70;;;17.60;99.90;;;;;;5034780;28;20191;-76
2022/06/23 03:24:23;;;;;;;20.53;18.37;;;17.60;99.90;;;;;;5033289;28;20684;-76
2022/06/23 03:27:00;;;;;;;38.20;35.30;;;17.60;99.90;;;;;;5032389;28;20680;-77
2022/06/23 03:29:35;;;;;;;27.83;25.30;;;17.70;99.90;;;;;;5032939;28;20214;-77
2022/06/23 03:32:10;;;;;;;37.77;35.13;;;17.60;99.90;;;;;;5033120;28;20202;-78
2022/06/23 03:34:38;;;;;;;34.70;32.27;;;17.60;99.90;;;;;;5033966;28;20660;-78
2022/06/23 03:37:16;;;;;;;51.90;48.47;;;17.60;99.90;;;;;;5032376;28;20211;-79
2022/06/23 03:42:43;;;;;;;24.90;23.03;;;17.70;99.90;;;;;;5034152;28;20210;-79
2022/06/23 03:45:39;;;;;;;29.90;27.17;;;17.80;99.90;;;;;;5034163;28;20186;-78
2022/06/23 03:48:37;;;;;;;36.00;33.03;;;17.90;99.90;;;;;;5032204;28;20709;-78
2022/06/23 03:51:11;;;;;;;17.13;15.53;;;17.90;99.90;;;;;;5028742;28;20223;-78
2022/06/23 03:53:52;;;;;;;15.47;14.17;;;17.90;99.90;;;;;;5032643;28;20214;-79
2022/06/23 03:56:25;;;;;;;20.13;15.20;;;18.00;99.90;;;;;;5033933;28;20179;-78
2022/06/23 03:59:24;;;;;;;19.27;17.40;;;18.00;99.90;;;;;;5034119;28;20187;-78
2022/06/23 04:02:12;;;;;;;38.50;35.33;;;18.10;99.90;;;;;;5014586;28;20222;-79
2022/06/23 04:04:51;;;;;;;59.27;55.43;;;18.10;99.90;;;;;;5046381;28;20213;-79
2022/06/23 04:07:29;;;;;;;64.97;60.90;;;18.20;99.90;;;;;;5045168;28;20733;-78
2022/06/23 04:10:11;;;;;;;100.50;94.83;;;18.20;99.90;;;;;;5041478;28;20202;-79
2022/06/23 04:12:43;;;;;;;88.20;83.27;;;18.20;99.90;;;;;;5033825;28;20230;-79
2022/06/23 04:15:17;;;;;;;72.20;67.57;;;18.30;99.90;;;;;;5036381;28;20792;-79
2022/06/23 04:17:52;;;;;;;40.93;38.00;;;18.40;99.90;;;;;;5033869;28;20179;-78
2022/06/23 04:20:21;;;;;;;25.57;23.27;;;18.50;99.90;;;;;;5033511;28;20239;-78
2022/06/23 04:22:53;;;;;;;25.40;23.30;;;18.50;99.90;;;;;;5034273;28;20199;-77
2022/06/23 04:25:22;;;;;;;46.67;43.47;;;18.70;99.90;;;;;;5044937;28;20190;-78
2022/06/23 04:27:54;;;;;;;65.60;61.73;;;18.80;99.90;;;;;;5046054;28;20281;-78
2022/06/23 04:30:40;;;;;;;55.30;51.67;;;18.90;99.90;;;;;;5042669;28;20218;-78
2022/06/23 04:33:16;;;;;;;27.90;25.90;;;19.10;99.90;;;;;;5037556;28;20681;-78
2022/06/23 04:35:51;;;;;;;23.47;21.50;;;19.20;99.90;;;;;;5034217;28;20190;-78
2022/06/23 04:38:16;;;;;;;55.30;51.90;;;19.20;99.90;;;;;;5033364;28;20637;-79
2022/06/23 04:40:42;;;;;;;70.33;66.20;;;19.20;99.90;;;;;;5032673;28;20221;-79
2022/06/23 04:43:31;;;;;;;122.30;115.43;;;19.20;99.90;;;;;;5031688;28;20210;-78
2022/06/23 04:46:17;;;;;;;74.80;70.40;;;19.30;99.90;;;;;;5033356;28;20229;-79
2022/06/23 04:49:02;;;;;;;78.03;73.20;;;19.40;99.90;;;;;;5031154;28;20210;-79
2022/06/23 04:51:46;;;;;;;65.80;61.57;;;19.50;99.90;;;;;;5032337;28;20190;-78
2022/06/23 04:54:23;;;;;;;35.33;32.63;;;19.60;99.90;;;;;;5035605;22;20238;-75
2022/06/23 04:57:18;;;;;;;23.77;22.03;;;19.60;99.90;;;;;;5009734;28;20635;-75
2022/06/23 04:59:49;;;;;;;17.33;14.27;;;19.60;99.90;;;;;;5005836;28;20575;-76
2022/06/23 05:02:18;;;;;;;16.53;14.00;;;19.50;99.90;;;;;;5012103;28;20187;-76
2022/06/23 05:04:46;;;;;;;28.07;26.13;;;19.50;99.90;;;;;;5031243;28;20190;-76
2022/06/23 05:07:51;;;;;;;60.37;56.80;;;19.50;99.90;;;;;;5029113;28;20179;-76
2022/06/23 05:10:28;;;;;;;70.67;66.33;;;19.50;99.90;;;;;;5028718;28;20218;-76
2022/06/23 05:13:01;;;;;;;76.63;72.53;;;19.40;99.90;;;;;;5031056;28;20206;-75
2022/06/23 05:15:30;;;;;;;61.97;58.33;;;19.40;99.90;;;;;;5031322;28;20178;-76
2022/06/23 05:18:22;;;;;;;33.53;31.10;;;19.40;99.90;;;;;;5030258;28;20207;-75
2022/06/23 05:20:54;;;;;;;15.17;13.63;;;19.40;99.90;;;;;;5031232;28;20213;-76
2022/06/23 05:23:24;;;;;;;81.40;76.97;;;19.60;99.90;;;;;;5030868;28;20206;-76
2022/06/23 05:25:53;;;;;;;96.77;91.07;;;19.60;99.90;;;;;;5029658;28;20195;-75
2022/06/23 05:28:28;;;;;;;32.30;29.80;;;19.60;99.90;;;;;;5030730;28;20717;-75
2022/06/23 05:31:01;;;;;;;60.27;56.80;;;19.90;99.90;;;;;;5032272;28;20210;-76
2022/06/23 05:33:32;;;;;;;54.00;50.80;;;20.50;99.90;;;;;;5033070;28;20199;-76
2022/06/23 05:36:12;;;;;;;55.83;52.70;;;21.30;99.90;;;;;;5032310;28;20183;-77
2022/06/23 05:39:10;;;;;;;30.75;28.45;;;22.20;99.90;;;;;;5031321;28;20421;-77
2022/06/23 05:41:52;;;;;;;99.80;94.22;;;23.10;99.90;;;;;;5031296;28;20193;-76
2022/06/23 05:44:23;;;;;;;55.45;52.33;;;23.70;99.90;;;;;;5031769;28;20605;-76
2022/06/23 05:46:51;;;;;;;29.58;27.63;;;24.30;99.90;;;;;;5030051;28;20541;-77
2022/06/23 05:49:26;;;;;;;34.85;32.70;;;24.60;99.90;;;;;;5029403;28;20297;-77
2022/06/23 05:51:54;;;;;;;15.40;14.00;;;25.10;99.90;;;;;;5031555;28;20206;-76
2022/06/23 05:54:43;;;;;;;19.05;17.70;;;25.60;99.90;;;;;;5029431;28;20293;-77
2022/06/23 05:57:19;;;;;;;24.67;22.65;;;26.00;99.90;;;;;;5029111;28;20551;-77
2022/06/23 06:00:17;;;;;;;31.80;29.05;;;26.10;99.90;;;;;;5029629;28;20194;-77
2022/06/23 06:02:50;;;;;;;56.50;53.00;;;26.30;99.90;;;;;;5029405;28;20713;-75
2022/06/23 06:05:29;;;;;;;46.58;43.42;;;26.20;99.90;;;;;;5030725;28;20544;-76
2022/06/23 06:07:56;;;;;;;101.28;95.68;;;26.20;99.90;;;;;;5028767;28;20183;-75
2022/06/23 06:10:26;;;;;;;229.80;217.38;;;26.60;99.90;;;;;;5030767;28;20203;-75
2022/06/23 06:12:54;;;;;;;138.07;130.45;;;26.70;99.90;;;;;;5029485;28;20199;-77
2022/06/23 06:15:25;;;;;;;169.30;160.00;;;26.80;99.90;;;;;;5030828;28;20233;-76
2022/06/23 06:18:25;;;;;;;87.35;82.38;;;27.10;99.90;;;;;;5032566;28;20551;-77
2022/06/23 06:20:55;;;;;;;101.38;95.40;;;27.10;99.90;;;;;;5033337;28;20206;-77
2022/06/23 06:23:49;;;;;;;42.10;39.05;;;27.20;99.90;;;;;;5033294;28;20199;-76
2022/06/23 06:26:20;;;;;;;37.78;34.83;;;27.60;99.90;;;;;;5034348;28;20210;-76
2022/06/23 06:28:46;;;;;;;25.67;23.48;;;27.70;99.90;;;;;;5033226;28;20190;-76
2022/06/23 06:31:18;;;;;;;13.32;11.93;;;27.90;99.90;;;;;;5032662;28;20553;-76
2022/06/23 06:34:01;;;;;;;15.15;12.05;;;28.00;99.90;;;;;;5032533;28;20230;-77
2022/06/23 06:36:36;;;;;;;12.32;10.77;;;28.10;99.90;;;;;;5033764;28;20644;-77
2022/06/23 06:39:17;;;;;;;15.38;13.23;;;28.20;99.90;;;;;;5033532;28;20178;-75
2022/06/23 06:41:48;;;;;;;13.45;11.05;;;28.10;99.90;;;;;;5033658;28;20179;-76
2022/06/23 06:44:16;;;;;;;15.32;11.68;;;27.90;99.90;;;;;;5032715;28;20706;-77
2022/06/23 06:46:43;;;;;;;13.70;12.38;;;28.20;99.90;;;;;;5033511;28;20220;-76
2022/06/23 06:49:15;;;;;;;11.10;9.00;;;28.20;99.90;;;;;;5033203;28;20175;-76
2022/06/23 06:51:41;;;;;;;12.20;10.80;;;28.60;99.90;;;;;;5033097;28;20582;-76
2022/06/23 06:54:27;;;;;;;12.48;10.15;;;28.90;99.90;;;;;;5032472;28;20221;-76
2022/06/23 06:56:55;;;;;;;10.00;9.00;;;29.00;99.90;;;;;;5033035;28;20547;-76
2022/06/23 06:59:30;;;;;;;13.93;10.02;;;29.10;99.90;;;;;;5033546;28;20179;-78
2022/06/23 07:02:19;;;;;;;17.80;9.95;;;29.60;99.90;;;;;;5032440;28;20205;-76
2022/06/23 07:05:28;;;;;;;14.25;11.25;;;29.90;99.90;;;;;;5033300;28;20558;-74
2022/06/23 07:08:04;;;;;;;9.95;8.48;;;30.10;99.90;;;;;;5031515;28;20604;-75
2022/06/23 07:11:00;;;;;;;14.13;10.00;;;30.30;99.90;;;;;;5033065;28;20213;-75
2022/06/23 07:13:39;;;;;;;25.98;24.00;;;30.40;99.90;;;;;;5031697;28;20210;-75
2022/06/23 07:16:27;;;;;;;27.90;25.55;;;30.30;99.90;;;;;;5033314;28;20171;-76
2022/06/23 07:19:10;;;;;;;33.08;30.77;;;30.50;99.90;;;;;;5031172;28;20183;-76
2022/06/23 07:21:52;;;;;;;34.42;31.98;;;30.50;99.90;;;;;;5033893;28;20266;-75
2022/06/23 07:24:40;;;;;;;31.45;29.15;;;30.80;99.90;;;;;;5033598;28;20202;-75
2022/06/23 07:27:13;;;;;;;37.55;34.75;;;30.80;99.90;;;;;;5032323;28;20187;-75
2022/06/23 07:29:42;;;;;;;14.30;12.30;;;30.80;99.90;;;;;;5032803;28;20210;-75
2022/06/23 07:32:16;;;;;;;19.35;16.60;;;30.90;99.90;;;;;;5031591;28;20646;-75
2022/06/23 07:34:50;;;;;;;15.45;13.10;;;30.90;99.90;;;;;;5032734;28;20655;-75
2022/06/23 07:37:26;;;;;;;24.77;22.95;;;30.70;99.90;;;;;;5032206;28;20186;-75
2022/06/23 07:39:59;;;;;;;25.85;23.83;;;30.70;99.90;;;;;;5032619;28;20269;-75
2022/06/23 07:43:04;;;;;;;37.40;34.92;;;30.40;99.90;;;;;;5031520;28;20207;-75
2022/06/23 07:45:35;;;;;;;28.27;26.05;;;30.60;99.90;;;;;;5032935;28;20193;-76
2022/06/23 07:48:01;;;;;;;30.77;28.65;;;30.90;99.90;;;;;;5032247;28;20186;-76
2022/06/23 07:50:28;;;;;;;49.95;46.17;;;30.90;99.90;;;;;;5033294;28;20214;-76
2022/06/23 07:52:57;;;;;;;15.70;13.35;;;31.30;99.90;;;;;;5032139;28;20278;-76
2022/06/23 07:55:41;;;;;;;14.05;12.80;;;31.60;99.90;;;;;;5032704;28;20683;-75
2022/06/23 07:58:08;;;;;;;13.23;11.98;;;31.60;99.90;;;;;;5031519;28;20183;-76
2022/06/23 08:00:40;;;;;;;15.50;14.27;;;31.90;99.90;;;;;;5032218;28;20694;-75
2022/06/23 08:03:18;;;;;;;9.75;8.70;;;31.60;99.90;;;;;;5031050;28;20234;-76
2022/06/23 08:05:52;;;;;;;14.95;9.73;;;31.20;99.90;;;;;;5032432;28;20191;-76
2022/06/23 08:08:22;;;;;;;18.17;16.58;;;31.90;99.90;;;;;;5030095;28;20429;-76
2022/06/23 08:12:53;;;;;;;20.92;19.02;;;31.90;99.90;;;;;;5031132;28;20225;-77
2022/06/23 08:13:43;;;;;;;18.02;16.17;;;31.70;99.90;;;;;;5032039;28;20203;-76
2022/06/23 08:19:29;;;;;;;42.38;39.55;;;32.00;99.70;;;;;;5030857;28;20190;-76
2022/06/23 08:22:11;;;;;;;38.78;36.28;;;32.20;99.30;;;;;;5031467;28;20170;-76
2022/06/23 08:24:39;;;;;;;27.00;25.15;;;32.50;98.70;;;;;;5032322;28;20183;-76
2022/06/23 08:27:14;;;;;;;29.23;27.10;;;32.10;98.10;;;;;;5031313;28;20534;-75
2022/06/23 08:29:47;;;;;;;12.50;10.55;;;32.20;98.80;;;;;;5032280;28;20345;-76
2022/06/23 08:32:16;;;;;;;10.35;5.07;;;32.50;97.60;;;;;;5032162;28;20182;-76
2022/06/23 08:35:07;;;;;;;7.28;5.30;;;32.30;97.00;;;;;;5031764;28;20171;-75
2022/06/23 08:37:44;;;;;;;12.60;7.32;;;32.10;95.50;;;;;;5030885;28;20183;-75
2022/06/23 08:40:36;;;;;;;12.23;6.80;;;31.90;97.30;;;;;;5031516;28;20236;-75
2022/06/23 08:43:32;;;;;;;11.18;6.03;;;32.20;95.80;;;;;;5030482;28;20300;-75
2022/06/23 08:46:17;;;;;;;17.35;15.75;;;32.00;95.60;;;;;;5031679;28;20183;-75
2022/06/23 08:48:59;;;;;;;17.50;16.02;;;31.60;96.90;;;;;;5031025;28;20193;-75
2022/06/23 08:52:04;;;;;;;10.85;8.98;;;31.70;95.90;;;;;;5031632;28;20195;-75
2022/06/23 08:54:34;;;;;;;23.02;21.33;;;31.10;96.00;;;;;;5031153;28;20190;-75
2022/06/23 08:57:08;;;;;;;21.98;20.08;;;31.10;95.90;;;;;;5030485;28;20189;-76
2022/06/23 08:59:44;;;;;;;24.42;21.90;;;31.30;95.00;;;;;;5030216;28;20210;-75
2022/06/23 09:02:26;;;;;;;14.63;13.07;;;31.50;95.70;;;;;;5031823;28;20186;-77
2022/06/23 09:05:17;;;;;;;15.27;13.90;;;31.30;95.90;;;;;;5029966;28;20191;-77
2022/06/23 09:08:02;;;;;;;13.35;8.73;;;31.40;95.40;;;;;;5026976;28;20186;-76
2022/06/23 09:11:10;;;;;;;15.45;10.57;;;31.30;95.80;;;;;;5030846;28;20222;-75
2022/06/23 09:13:54;;;;;;;18.02;14.75;;;31.70;95.20;;;;;;5031021;28;20264;-74
2022/06/23 09:16:39;;;;;;;23.48;21.42;;;32.10;94.80;;;;;;5030889;28;20186;-75
2022/06/23 09:19:35;;;;;;;22.33;20.58;;;32.10;94.50;;;;;;5029466;28;20651;-76
2022/06/23 09:22:27;;;;;;;25.73;23.52;;;31.80;94.70;;;;;;5030917;28;20603;-75
2022/06/23 09:25:04;;;;;;;16.17;14.88;;;31.60;94.20;;;;;;5029661;28;20190;-75
2022/06/23 09:27:45;;;;;;;16.73;14.98;;;31.60;94.30;;;;;;5029950;28;20189;-76
2022/06/23 09:31:00;;;;;;;17.35;12.50;;;31.50;94.90;;;;;;5030713;28;20210;-76
2022/06/23 09:33:45;;;;;;;18.88;17.00;;;31.70;94.20;;;;;;4992087;28;20208;-77
2022/06/23 09:36:32;;;;;;;17.52;15.90;;;31.50;94.40;;;;;;5030961;28;20193;-77
2022/06/23 09:39:19;;;;;;;17.27;15.57;;;31.00;95.10;;;;;;5028786;28;20182;-78
2022/06/23 09:41:56;;;;;;;19.30;17.30;;;31.30;95.30;;;;;;5029529;28;20183;-74
2022/06/23 09:44:43;;;;;;;23.08;21.15;;;31.70;93.60;;;;;;5030871;28;20194;-77
2022/06/23 09:47:41;;;;;;;24.92;22.77;;;32.10;94.00;;;;;;5029368;28;20179;-77
2022/06/23 09:50:22;;;;;;;13.85;8.32;;;32.80;93.30;;;;;;5025417;28;20596;-77
2022/06/23 09:53:13;;;;;;;14.30;7.30;;;33.10;91.40;;;;;;5033171;28;20221;-77
2022/06/23 09:55:46;;;;;;;14.48;8.00;;;33.40;92.30;;;;;;5034990;28;20186;-77
2022/06/23 09:58:46;;;;;;;18.45;8.63;;;33.80;90.40;;;;;;5033977;28;20175;-77
2022/06/23 10:01:30;;;;;;;15.63;9.45;;;33.40;90.50;;;;;;5034742;28;20179;-76
2022/06/23 10:04:11;;;;;;;16.15;9.68;;;33.10;90.30;;;;;;5033975;28;20234;-76
2022/06/23 10:07:05;;;;;;;12.93;10.45;;;32.80;89.50;;;;;;5035210;28;20183;-77
2022/06/23 10:09:53;;;;;;;16.80;10.13;;;32.60;90.40;;;;;;5034692;28;20680;-76
2022/06/23 10:12:50;;;;;;;15.00;11.13;;;33.10;90.00;;;;;;5034100;28;20179;-76
2022/06/23 10:15:26;;;;;;;19.92;12.32;;;33.40;87.50;;;;;;5032785;28;20179;-76
2022/06/23 10:18:03;;;;;;;17.08;12.32;;;33.40;87.50;;;;;;5032398;28;20632;-77
2022/06/23 10:20:35;;;;;;;16.50;13.13;;;34.10;85.30;;;;;;5034824;28;20465;-76
2022/06/23 10:23:30;;;;;;;19.60;14.48;;;34.10;84.20;;;;;;5034260;28;20563;-77
2022/06/23 10:26:05;;;;;;;20.42;18.35;;;34.10;83.40;;;;;;5029249;28;20717;-75
2022/06/23 10:28:55;;;;;;;25.90;23.35;;;34.40;82.30;;;;;;5032043;28;20236;-75
2022/06/23 10:31:54;;;;;;;36.65;33.63;;;35.40;79.60;;;;;;5033916;28;20215;-74
2022/06/23 10:34:40;;;;;;;35.97;32.97;;;35.50;78.60;;;;;;5032631;28;20195;-76
2022/06/23 10:37:18;;;;;;;33.15;30.23;;;34.50;79.20;;;;;;5033086;28;20189;-76
2022/06/23 10:40:20;;;;;;;26.85;24.70;;;34.10;80.80;;;;;;5032655;28;20179;-75
2022/06/23 10:42:59;;;;;;;24.17;21.70;;;34.00;81.30;;;;;;5034024;28;20244;-76
2022/06/23 10:45:31;;;;;;;25.00;22.38;;;34.00;79.00;;;;;;5034187;28;20186;-75
2022/06/23 10:48:22;;;;;;;27.38;25.15;;;34.40;80.10;;;;;;5031507;28;20578;-75
2022/06/23 10:51:26;;;;;;;25.80;23.42;;;34.80;77.70;;;;;;5033531;28;20215;-75
2022/06/23 10:54:01;;;;;;;33.53;31.13;;;34.80;77.50;;;;;;5046877;22;20274;-80
2022/06/23 10:57:09;;;;;;;24.85;22.85;;;35.00;78.20;;;;;;5017647;28;20679;-79
2022/06/23 10:59:53;;;;;;;23.52;21.33;;;35.40;75.70;;;;;;5008213;28;20200;-79
2022/06/23 11:02:57;;;;;;;22.23;20.00;;;35.20;75.70;;;;;;5016750;28;20182;-79
2022/06/23 11:05:48;;;;;;;24.98;22.88;;;35.10;74.10;;;;;;4997473;28;20183;-80
2022/06/23 11:08:26;;;;;;;22.75;19.80;;;34.80;74.70;;;;;;4996829;28;20535;-80
2022/06/23 11:11:38;;;;;;;20.63;18.85;;;35.20;73.10;;;;;;4995722;28;20278;-79
2022/06/23 11:14:09;;;;;;;16.90;15.43;;;34.90;73.40;;;;;;4981163;28;20216;-79
2022/06/23 11:17:07;;;;;;;15.98;12.32;;;34.70;72.60;;;;;;4997445;28;20614;-79
2022/06/23 11:19:51;;;;;;;17.40;15.23;;;34.50;73.20;;;;;;4999695;28;20279;-79
2022/06/23 11:22:26;;;;;;;27.50;25.23;;;35.10;72.10;;;;;;4995857;28;20192;-79
2022/06/23 11:25:16;;;;;;;30.17;28.02;;;35.30;75.40;;;;;;4996992;28;20188;-80
2022/06/23 11:28:10;;;;;;;85.70;80.50;;;36.30;71.00;;;;;;4996519;28;20339;-80
2022/06/23 11:30:54;;;;;;;205.48;194.73;;;37.20;66.70;;;;;;4997025;28;20212;-80
2022/06/23 11:33:44;;;;;;;186.05;176.30;;;37.30;66.20;;;;;;5002383;28;20348;-80
2022/06/23 11:36:26;;;;;;;230.98;218.57;;;37.10;65.50;;;;;;5005184;28;20313;-79
2022/06/23 11:38:56;;;;;;;219.27;207.65;;;37.30;66.20;;;;;;4993848;28;20176;-79
2022/06/23 11:41:37;;;;;;;274.98;260.13;;;37.70;64.30;;;;;;4999374;28;20188;-80
2022/06/23 11:44:30;;;;;;;256.92;243.30;;;37.00;62.10;;;;;;5001713;28;20215;-79
2022/06/23 11:47:13;;;;;;;239.00;226.52;;;37.20;60.70;;;;;;4995613;28;20223;-79
2022/06/23 11:50:07;;;;;;;170.57;161.65;;;37.50;59.70;;;;;;4995302;28;20262;-79
2022/06/23 11:53:13;;;;;;;213.55;202.10;;;37.50;58.90;;;;;;4996398;28;20188;-79
2022/06/23 11:55:48;;;;;;;121.65;114.78;;;37.90;59.90;;;;;;4996892;28;20184;-79
2022/06/23 11:58:48;;;;;;;70.65;65.63;;;38.30;57.50;;;;;;4995572;28;20183;-79
2022/06/23 12:01:17;;;;;;;112.88;106.53;;;38.00;58.20;;;;;;5002639;28;20189;-79
2022/06/23 12:03:49;;;;;;;99.88;93.95;;;37.30;58.90;;;;;;5000303;28;20574;-79
2022/06/23 12:06:24;;;;;;;196.55;186.10;;;38.00;58.80;;;;;;5003925;28;20177;-79
2022/06/23 12:09:10;;;;;;;18.65;16.88;;;38.40;60.00;;;;;;4996761;28;20270;-80
2022/06/23 12:11:38;;;;;;;10.45;7.82;;;39.50;55.50;;;;;;4996298;28;20180;-79
2022/06/23 12:14:07;;;;;;;14.10;7.18;;;39.90;54.20;;;;;;4995152;28;20214;-79
2022/06/23 12:16:41;;;;;;;13.82;7.65;;;39.10;53.50;;;;;;4995770;28;20211;-79
2022/06/23 12:19:14;;;;;;;15.93;8.45;;;38.50;53.60;;;;;;4996074;28;20660;-80
2022/06/23 12:22:14;;;;;;;11.68;9.52;;;37.70;54.40;;;;;;4994839;28;20188;-79
2022/06/23 12:25:14;;;;;;;12.48;9.57;;;38.10;54.10;;;;;;4994153;28;20295;-79
2022/06/23 12:27:49;;;;;;;13.85;12.18;;;38.50;53.10;;;;;;4994610;28;20211;-78
2022/06/23 12:30:18;;;;;;;15.48;11.70;;;38.80;52.30;;;;;;5004382;28;20427;-80
2022/06/23 12:33:11;;;;;;;16.95;14.57;;;39.10;51.70;;;;;;4996109;28;20267;-80
2022/06/23 12:36:03;;;;;;;23.33;21.17;;;39.10;51.10;;;;;;4997128;28;20180;-79
2022/06/23 12:38:38;;;;;;;21.42;19.90;;;39.70;50.90;;;;;;4994804;28;20192;-80
2022/06/23 12:41:22;;;;;;;14.63;13.38;;;39.70;50.30;;;;;;4994068;28;20212;-80
2022/06/23 12:44:00;;;;;;;25.80;23.77;;;40.10;50.20;;;;;;4996042;28;20644;-79
2022/06/23 12:46:40;;;;;;;31.35;28.90;;;39.60;49.80;;;;;;4998203;28;20188;-79
2022/06/23 12:49:18;;;;;;;29.48;27.45;;;39.10;49.40;;;;;;4995030;28;20184;-79
2022/06/23 12:51:50;;;;;;;33.60;31.50;;;39.00;50.10;;;;;;4995652;28;20552;-80
2022/06/23 12:54:36;;;;;;;34.25;31.95;;;39.40;49.80;;;;;;4995064;28;20306;-79
2022/06/23 12:57:14;;;;;;;31.00;28.90;;;39.30;49.40;;;;;;4993016;28;20191;-79
2022/06/23 12:59:52;;;;;;;21.85;19.98;;;39.30;49.00;;;;;;4993657;28;20211;-79
2022/06/23 13:02:38;;;;;;;21.42;19.55;;;38.40;51.20;;;;;;4993552;28;20213;-79
2022/06/23 13:05:07;;;;;;;41.25;38.42;;;39.00;50.50;;;;;;4993726;28;20184;-79
2022/06/23 13:07:43;;;;;;;30.88;28.65;;;39.80;49.20;;;;;;4993714;28;20184;-79
2022/06/23 13:10:31;;;;;;;22.83;21.42;;;40.60;47.60;;;;;;5000002;28;20215;-80
2022/06/23 13:13:24;;;;;;;11.10;7.40;;;40.80;47.90;;;;;;5015827;28;20208;-80
2022/06/23 13:16:16;;;;;;;9.13;6.30;;;41.00;46.10;;;;;;5002007;28;20193;-80
2022/06/23 13:18:47;;;;;;;7.43;6.25;;;41.40;45.50;;;;;;4995299;28;20303;-79
2022/06/23 13:21:22;;;;;;;29.42;11.10;;;40.70;45.20;;;;;;4993812;28;20206;-79
2022/06/23 13:23:52;;;;;;;9.65;6.95;;;40.30;46.70;;;;;;4995016;28;20196;-79
2022/06/23 13:26:29;;;;;;;12.52;5.97;;;40.50;46.20;;;;;;5001438;28;20180;-78
2022/06/23 13:29:01;;;;;;;21.85;19.70;;;39.50;46.30;;;;;;5002449;28;20275;-80
2022/06/23 13:32:06;;;;;;;17.42;15.65;;;39.30;46.90;;;;;;5001431;28;20212;-79
2022/06/23 13:34:36;;;;;;;9.18;6.32;;;40.20;46.00;;;;;;5003769;28;20518;-79
2022/06/23 13:37:14;;;;;;;60.78;57.03;;;40.50;44.80;;;;;;5001900;28;20180;-78
2022/06/23 13:39:53;;;;;;;46.85;43.65;;;37.60;48.20;;;;;;5006318;28;20541;-79